Terminal Aerodrome Forecast
Issued by NWS

Current Version | Previous Version | Text Only | Print | Product List | Glossary On
Versions: 1 2 3 4 5 6 7 8 9 10 11 12 13 14
839
FTUS41 KCAR 211120
TAFBHB
TAF
KBHB 211120Z 2112/2212 29005KT P6SM SKC
     FM211500 26011KT P6SM FEW250
     FM211700 26014G24KT P6SM FEW250
     FM212100 26013KT P6SM FEW080=

USA.gov is the U.S. government's official web portal to all federal, state and local government web resources and services.